Time;durP1;ratioP1;P1;durP2;ratioP2;P2;SDS_P1;SDS_P2;PMS_P1;PMS_P2;Temp;Humidity;BMP_temperature;BMP_pressure;BME280_temperature;BME280_humidity;BME280_pressure;Samples;Min_cycle;Max_cycle;Signal;HPM_P1;HPM_P2
2023/08/13 00:01:08;;;;;;;1.97;1.77;;;23.50;99.90;;;;;;4969615;28;20461;-82
2023/08/13 00:03:36;;;;;;;2.60;1.90;;;23.50;99.90;;;;;;4973387;28;20455;-82
2023/08/13 00:06:03;;;;;;;2.87;2.23;;;23.50;99.90;;;;;;4972218;28;20475;-82
2023/08/13 00:08:30;;;;;;;2.37;1.90;;;23.50;99.90;;;;;;4970436;28;20468;-82
2023/08/13 00:11:00;;;;;;;1.53;1.40;;;23.40;99.90;;;;;;4970551;28;20495;-82
2023/08/13 00:13:27;;;;;;;2.50;2.10;;;23.40;99.90;;;;;;4973568;28;20455;-83
2023/08/13 00:15:54;;;;;;;1.60;1.50;;;23.40;99.90;;;;;;4966385;28;20468;-83
2023/08/13 00:18:20;;;;;;;2.50;1.70;;;23.40;99.90;;;;;;4970622;28;20472;-83
2023/08/13 00:20:49;;;;;;;2.13;1.90;;;23.40;99.90;;;;;;4971194;28;20477;-84
2023/08/13 00:23:16;;;;;;;2.30;2.00;;;23.40;99.90;;;;;;4970336;28;20833;-82
2023/08/13 00:25:43;;;;;;;2.27;1.87;;;23.40;99.90;;;;;;4967814;28;20469;-83
2023/08/13 00:28:10;;;;;;;2.60;1.80;;;23.40;99.90;;;;;;4969651;28;21117;-83
2023/08/13 00:30:36;;;;;;;1.87;1.60;;;23.40;99.90;;;;;;4968834;28;21108;-82
2023/08/13 00:33:03;;;;;;;2.50;1.90;;;23.40;99.90;;;;;;4974053;28;20953;-83
2023/08/13 00:35:30;;;;;;;1.90;1.70;;;23.40;99.90;;;;;;4969911;28;20462;-83
2023/08/13 00:37:58;;;;;;;1.90;1.73;;;23.40;99.90;;;;;;4971687;28;20559;-81
2023/08/13 00:40:25;;;;;;;2.10;1.90;;;23.40;99.90;;;;;;4972411;28;20471;-83
2023/08/13 00:42:53;;;;;;;3.13;2.13;;;23.40;99.90;;;;;;4973575;28;20468;-83
2023/08/13 00:45:20;;;;;;;2.50;2.30;;;23.40;99.90;;;;;;4971392;28;20452;-82
2023/08/13 00:47:48;;;;;;;2.13;1.70;;;23.40;99.90;;;;;;4973322;28;20471;-82
2023/08/13 00:50:15;;;;;;;1.80;1.47;;;23.40;99.90;;;;;;4972545;28;20495;-82
2023/08/13 00:52:41;;;;;;;2.13;1.90;;;23.40;99.90;;;;;;4973198;28;20486;-82
2023/08/13 00:55:10;;;;;;;1.90;1.73;;;23.40;99.90;;;;;;4967825;28;20461;-82
2023/08/13 00:57:38;;;;;;;4.50;1.80;;;23.40;99.90;;;;;;4969126;28;20473;-82
2023/08/13 01:00:11;;;;;;;2.77;1.63;;;23.40;99.90;;;;;;4966619;28;20475;-83
2023/08/13 01:02:38;;;;;;;1.57;1.47;;;23.30;99.90;;;;;;4970641;28;20458;-81
2023/08/13 01:05:05;;;;;;;2.50;2.13;;;23.30;99.90;;;;;;4962970;28;21382;-82
2023/08/13 01:07:37;;;;;;;1.70;1.60;;;23.30;99.90;;;;;;4971301;28;20606;-80
2023/08/13 01:10:14;;;;;;;2.47;2.03;;;23.30;99.90;;;;;;4967237;28;20466;-82
2023/08/13 01:12:53;;;;;;;2.40;1.83;;;23.30;99.90;;;;;;4970310;28;20456;-83
2023/08/13 01:15:24;;;;;;;2.40;2.20;;;23.30;99.90;;;;;;4968055;28;20985;-82
2023/08/13 01:17:53;;;;;;;2.23;2.00;;;23.30;99.90;;;;;;4971532;28;20485;-83
2023/08/13 01:20:25;;;;;;;3.40;2.10;;;23.30;99.90;;;;;;4971333;28;20845;-83
2023/08/13 01:22:53;;;;;;;2.93;1.83;;;23.30;99.90;;;;;;4970740;28;20460;-81
2023/08/13 01:25:20;;;;;;;1.90;1.80;;;23.30;99.90;;;;;;4963295;28;20488;-81
2023/08/13 01:27:53;;;;;;;2.23;1.93;;;23.30;99.90;;;;;;4972611;28;21494;-81
2023/08/13 01:30:27;;;;;;;1.93;1.80;;;23.30;99.90;;;;;;4965836;28;21011;-81
2023/08/13 01:32:59;;;;;;;1.93;1.63;;;23.30;99.90;;;;;;4972025;28;20472;-80
2023/08/13 01:35:27;;;;;;;1.90;1.80;;;23.30;99.90;;;;;;4970148;28;20470;-81
2023/08/13 01:37:57;;;;;;;1.73;1.63;;;23.30;99.90;;;;;;4971307;28;20471;-81
2023/08/13 01:40:24;;;;;;;1.90;1.60;;;23.30;99.90;;;;;;4967085;28;20826;-81
2023/08/13 01:42:51;;;;;;;1.73;1.63;;;23.30;99.90;;;;;;4969678;28;20470;-81
2023/08/13 01:45:17;;;;;;;2.90;2.00;;;23.30;99.90;;;;;;4965983;28;20479;-81
2023/08/13 01:47:44;;;;;;;3.20;1.97;;;23.30;99.90;;;;;;4970950;28;20481;-81
2023/08/13 01:50:11;;;;;;;2.37;2.00;;;23.30;99.90;;;;;;4969118;28;20481;-81
2023/08/13 01:52:38;;;;;;;2.10;1.90;;;23.30;99.90;;;;;;4966774;28;20467;-80
2023/08/13 01:55:08;;;;;;;2.73;1.70;;;23.20;99.90;;;;;;4962943;28;20469;-81
2023/08/13 01:57:34;;;;;;;2.07;1.50;;;23.20;99.90;;;;;;4969443;28;20538;-81
2023/08/13 02:00:01;;;;;;;2.80;1.80;;;23.20;99.90;;;;;;4964932;28;20481;-81
2023/08/13 02:02:28;;;;;;;1.70;1.60;;;23.30;99.90;;;;;;4967735;28;20836;-80
2023/08/13 02:04:55;;;;;;;2.10;1.90;;;23.20;99.90;;;;;;4970084;28;20498;-79
2023/08/13 02:07:21;;;;;;;2.30;1.87;;;23.20;99.90;;;;;;4971549;28;20463;-80
2023/08/13 02:09:48;;;;;;;2.00;1.80;;;23.20;99.90;;;;;;4973095;28;20475;-81
2023/08/13 02:12:16;;;;;;;2.30;1.43;;;23.20;99.90;;;;;;4973564;28;20495;-81
2023/08/13 02:14:43;;;;;;;2.27;1.63;;;23.20;99.90;;;;;;4973771;28;20956;-81
2023/08/13 02:17:12;;;;;;;1.77;1.53;;;23.20;99.90;;;;;;4968382;28;20471;-82
2023/08/13 02:19:40;;;;;;;2.43;1.43;;;23.20;99.90;;;;;;4964654;28;20974;-80
2023/08/13 02:22:07;;;;;;;1.60;1.47;;;23.20;99.90;;;;;;4968766;28;20468;-80
2023/08/13 02:24:33;;;;;;;2.50;1.83;;;23.20;99.90;;;;;;4968211;28;21031;-81
2023/08/13 02:27:00;;;;;;;1.83;1.60;;;23.20;99.90;;;;;;4968682;28;20461;-80
2023/08/13 02:29:28;;;;;;;1.53;1.43;;;23.20;99.90;;;;;;4969079;28;21041;-81
2023/08/13 02:31:55;;;;;;;2.07;1.90;;;23.20;99.90;;;;;;4965352;28;20934;-80
2023/08/13 02:34:23;;;;;;;2.27;1.67;;;23.20;99.90;;;;;;4964745;28;20463;-81
2023/08/13 02:36:50;;;;;;;1.50;1.40;;;23.20;99.90;;;;;;4965974;28;20461;-80
2023/08/13 02:39:17;;;;;;;1.67;1.57;;;23.20;99.90;;;;;;4963616;28;20966;-80
2023/08/13 02:41:44;;;;;;;2.83;1.90;;;23.20;99.90;;;;;;4962577;28;20468;-81
2023/08/13 02:44:11;;;;;;;1.63;1.53;;;23.20;99.90;;;;;;4969097;28;20960;-81
2023/08/13 02:46:39;;;;;;;2.33;1.90;;;23.20;99.90;;;;;;4973571;28;20491;-81
2023/08/13 02:49:06;;;;;;;2.33;1.90;;;23.20;99.90;;;;;;4971922;28;20480;-81
2023/08/13 02:51:33;;;;;;;3.00;1.77;;;23.20;99.90;;;;;;4971472;28;20485;-82
2023/08/13 02:53:59;;;;;;;2.53;2.33;;;23.20;99.90;;;;;;4974763;28;20522;-81
2023/08/13 02:56:26;;;;;;;2.00;1.80;;;23.20;99.90;;;;;;4974386;28;20980;-82
2023/08/13 02:58:53;;;;;;;2.13;1.67;;;23.20;99.90;;;;;;4972187;28;20491;-81
2023/08/13 03:01:20;;;;;;;1.90;1.50;;;23.20;99.90;;;;;;4971248;28;20461;-82
2023/08/13 03:03:52;;;;;;;1.83;1.47;;;23.20;99.90;;;;;;4973976;28;20460;-81
2023/08/13 03:06:19;;;;;;;1.77;1.67;;;23.10;99.90;;;;;;4972069;28;20817;-82
2023/08/13 03:08:45;;;;;;;2.13;1.90;;;23.10;99.90;;;;;;4972074;28;20464;-81
2023/08/13 03:11:12;;;;;;;1.80;1.70;;;23.10;99.90;;;;;;4970337;28;20476;-81
2023/08/13 03:13:39;;;;;;;1.60;1.50;;;23.10;99.90;;;;;;4972451;28;20885;-81
2023/08/13 03:16:06;;;;;;;2.23;2.00;;;23.10;99.90;;;;;;4967937;28;20472;-81
2023/08/13 03:18:33;;;;;;;1.83;1.57;;;23.10;99.90;;;;;;4972237;28;20467;-80
2023/08/13 03:21:01;;;;;;;1.57;1.47;;;23.10;99.90;;;;;;4966686;28;20460;-80
2023/08/13 03:23:29;;;;;;;2.60;1.80;;;23.10;99.90;;;;;;4969797;28;20472;-82
2023/08/13 03:25:56;;;;;;;2.60;1.70;;;23.10;99.90;;;;;;4968274;28;20973;-79
2023/08/13 03:28:22;;;;;;;1.83;1.40;;;23.10;99.90;;;;;;4968317;28;20470;-81
2023/08/13 03:30:49;;;;;;;1.70;1.60;;;23.10;99.90;;;;;;4964137;28;20837;-81
2023/08/13 03:33:16;;;;;;;2.00;1.77;;;23.10;99.90;;;;;;4969155;28;20966;-80
2023/08/13 03:35:43;;;;;;;2.20;1.87;;;23.10;99.90;;;;;;4968761;28;20479;-81
2023/08/13 03:38:11;;;;;;;2.20;2.00;;;23.10;99.90;;;;;;4970090;28;20464;-80
2023/08/13 03:40:38;;;;;;;1.40;1.30;;;23.10;99.90;;;;;;4967605;28;20658;-80
2023/08/13 03:43:05;;;;;;;1.53;1.43;;;23.10;99.90;;;;;;4968788;28;20578;-81
2023/08/13 03:45:32;;;;;;;1.43;1.23;;;23.10;99.90;;;;;;4967230;28;20708;-81
2023/08/13 03:47:58;;;;;;;1.70;1.60;;;23.10;99.90;;;;;;4967581;28;20468;-81
2023/08/13 03:50:25;;;;;;;2.10;1.40;;;23.10;99.90;;;;;;4968322;28;21083;-81
2023/08/13 03:52:52;;;;;;;1.60;1.40;;;23.10;99.90;;;;;;4968000;28;20485;-81
2023/08/13 03:55:20;;;;;;;2.07;1.87;;;23.10;99.90;;;;;;4967901;28;20831;-81
2023/08/13 03:57:46;;;;;;;2.77;2.27;;;23.10;99.90;;;;;;4967705;28;20830;-81
2023/08/13 04:00:14;;;;;;;2.13;1.93;;;23.10;99.90;;;;;;4967252;28;20479;-82
2023/08/13 04:02:41;;;;;;;1.63;1.53;;;23.10;99.90;;;;;;4973033;28;20815;-81
2023/08/13 04:05:08;;;;;;;2.10;1.90;;;23.10;99.90;;;;;;4967823;28;20469;-81
2023/08/13 04:07:35;;;;;;;2.20;1.70;;;23.10;99.90;;;;;;4969286;28;20472;-81
2023/08/13 04:10:01;;;;;;;1.47;1.37;;;23.10;99.90;;;;;;4974289;28;20471;-81
2023/08/13 04:12:30;;;;;;;1.90;1.60;;;23.10;99.90;;;;;;4973319;28;20485;-81
2023/08/13 04:14:56;;;;;;;1.60;1.40;;;23.10;99.90;;;;;;4970032;28;20469;-81
2023/08/13 04:17:23;;;;;;;1.50;1.40;;;23.10;99.90;;;;;;4967111;28;20471;-80
2023/08/13 04:19:50;;;;;;;2.17;1.77;;;23.10;99.90;;;;;;4970004;28;20476;-80
2023/08/13 04:22:17;;;;;;;1.80;1.60;;;23.10;99.90;;;;;;4966669;28;20461;-80
2023/08/13 04:24:47;;;;;;;1.67;1.30;;;23.10;99.90;;;;;;4971616;28;20810;-80
2023/08/13 04:27:14;;;;;;;2.17;1.57;;;23.10;99.90;;;;;;4972207;28;20539;-80
2023/08/13 04:29:42;;;;;;;3.20;1.37;;;23.10;99.90;;;;;;4969305;28;20460;-80
2023/08/13 04:32:09;;;;;;;1.70;1.60;;;23.10;99.90;;;;;;4966827;28;20511;-80
2023/08/13 04:34:35;;;;;;;1.40;1.27;;;23.10;99.90;;;;;;4971949;28;20492;-80
2023/08/13 04:37:02;;;;;;;1.60;1.40;;;23.10;99.90;;;;;;4968586;28;20470;-81
2023/08/13 04:39:29;;;;;;;1.80;1.50;;;23.10;99.90;;;;;;4966697;28;20522;-80
2023/08/13 04:41:59;;;;;;;1.50;1.33;;;23.00;99.90;;;;;;4974616;28;20709;-81
2023/08/13 04:44:26;;;;;;;1.60;1.50;;;23.00;99.90;;;;;;4974372;28;20460;-81
2023/08/13 04:46:54;;;;;;;1.70;1.40;;;23.00;99.90;;;;;;4964651;28;20495;-81
2023/08/13 04:49:21;;;;;;;1.37;1.27;;;23.00;99.90;;;;;;4972448;28;20491;-80
2023/08/13 04:51:48;;;;;;;1.50;1.40;;;23.00;99.90;;;;;;4974491;28;20495;-80
2023/08/13 04:54:14;;;;;;;1.70;1.50;;;23.00;99.90;;;;;;4975123;28;20476;-79
2023/08/13 04:56:41;;;;;;;1.60;1.50;;;23.00;99.90;;;;;;4967896;28;20473;-80
2023/08/13 04:59:08;;;;;;;1.80;1.70;;;23.00;99.90;;;;;;4972241;28;20472;-79
2023/08/13 05:01:35;;;;;;;1.73;1.50;;;23.00;99.90;;;;;;4971915;28;21253;-80
2023/08/13 05:04:03;;;;;;;1.80;1.60;;;23.00;99.90;;;;;;4965075;28;20537;-80
2023/08/13 05:06:30;;;;;;;1.70;1.40;;;23.00;99.90;;;;;;4964285;28;20464;-79
2023/08/13 05:08:57;;;;;;;1.60;1.40;;;23.00;99.90;;;;;;4965791;28;20461;-79
2023/08/13 05:11:24;;;;;;;1.20;1.10;;;23.00;99.90;;;;;;4968221;28;20971;-80
2023/08/13 05:13:51;;;;;;;1.40;1.30;;;23.00;99.90;;;;;;4966470;28;20464;-80
2023/08/13 05:16:17;;;;;;;1.50;1.40;;;23.00;99.90;;;;;;4964571;28;20460;-80
2023/08/13 05:18:44;;;;;;;1.70;1.60;;;23.00;99.90;;;;;;4966852;28;20464;-81
2023/08/13 05:21:12;;;;;;;1.60;1.50;;;23.00;99.90;;;;;;4969939;28;20466;-81
2023/08/13 05:23:39;;;;;;;1.97;1.50;;;23.00;99.90;;;;;;4974476;28;20461;-80
2023/08/13 05:26:06;;;;;;;1.50;1.40;;;23.00;99.90;;;;;;4967147;28;20463;-80
2023/08/13 05:28:33;;;;;;;2.03;1.93;;;23.00;99.90;;;;;;4968614;28;20468;-80
2023/08/13 05:31:03;;;;;;;2.10;1.90;;;23.00;99.90;;;;;;4969984;28;20472;-81
2023/08/13 05:33:30;;;;;;;1.73;1.63;;;23.00;99.90;;;;;;4969196;28;20586;-79
2023/08/13 05:35:56;;;;;;;1.53;1.43;;;23.00;99.90;;;;;;4968051;28;20468;-82
2023/08/13 05:38:24;;;;;;;1.40;1.17;;;23.00;99.90;;;;;;4971076;28;20491;-81
2023/08/13 05:40:51;;;;;;;1.93;1.73;;;23.00;99.90;;;;;;4970983;28;20464;-80
2023/08/13 05:43:18;;;;;;;2.00;1.80;;;23.00;99.90;;;;;;4966886;28;20453;-80
2023/08/13 05:45:45;;;;;;;1.77;1.67;;;23.00;99.90;;;;;;4965258;28;20544;-81
2023/08/13 05:48:11;;;;;;;2.70;1.57;;;23.00;99.90;;;;;;4968768;28;20606;-79
2023/08/13 05:50:38;;;;;;;1.57;1.43;;;23.00;99.90;;;;;;4962958;28;20473;-80
2023/08/13 05:53:06;;;;;;;1.50;1.37;;;23.00;99.90;;;;;;4968540;28;20484;-78
2023/08/13 05:55:34;;;;;;;1.67;1.20;;;22.90;99.90;;;;;;4975286;28;20534;-80
2023/08/13 05:58:01;;;;;;;2.53;1.80;;;22.90;99.90;;;;;;4966148;28;20462;-79
2023/08/13 06:00:28;;;;;;;2.17;1.80;;;22.90;99.90;;;;;;4964999;28;20698;-83
2023/08/13 06:02:54;;;;;;;3.10;1.60;;;22.90;99.90;;;;;;4972172;28;20480;-82
2023/08/13 06:05:21;;;;;;;1.93;1.50;;;22.90;99.90;;;;;;4967426;28;20471;-84
2023/08/13 06:07:48;;;;;;;2.70;1.40;;;22.90;99.90;;;;;;4969586;28;20476;-83
2023/08/13 06:10:15;;;;;;;5.63;1.80;;;22.90;99.90;;;;;;4971936;28;21001;-84
2023/08/13 06:12:43;;;;;;;2.40;1.73;;;22.90;99.90;;;;;;4972937;28;20841;-84
2023/08/13 06:15:10;;;;;;;3.00;1.70;;;23.00;99.90;;;;;;4968818;28;20533;-84
2023/08/13 06:17:37;;;;;;;2.80;1.67;;;23.00;99.90;;;;;;4960217;28;20949;-83
2023/08/13 06:20:04;;;;;;;5.63;1.60;;;23.00;99.90;;;;;;4968240;28;20461;-81
2023/08/13 06:22:31;;;;;;;3.90;2.20;;;22.90;99.90;;;;;;4968848;28;20460;-84
2023/08/13 06:24:58;;;;;;;2.30;2.10;;;22.90;99.90;;;;;;4969604;28;21036;-85
2023/08/13 06:27:25;;;;;;;4.93;2.77;;;22.90;99.90;;;;;;4969028;28;20463;-84
2023/08/13 06:29:53;;;;;;;3.97;1.80;;;22.90;99.90;;;;;;4967572;28;20463;-83
2023/08/13 06:32:19;;;;;;;4.47;1.90;;;22.90;99.90;;;;;;4967087;28;20492;-84
2023/08/13 06:34:46;;;;;;;2.20;1.97;;;22.90;99.90;;;;;;4966425;28;21068;-84
2023/08/13 06:37:13;;;;;;;2.30;1.50;;;22.90;99.90;;;;;;4969793;28;20480;-83
2023/08/13 06:39:40;;;;;;;4.03;1.63;;;22.90;99.90;;;;;;4971336;28;20475;-84
2023/08/13 06:42:07;;;;;;;4.80;2.57;;;22.90;99.90;;;;;;4969480;28;20468;-84
2023/08/13 06:44:34;;;;;;;1.87;1.67;;;22.90;99.90;;;;;;4965103;28;20463;-82
2023/08/13 06:47:02;;;;;;;1.83;1.53;;;22.90;99.90;;;;;;4955411;28;20476;-83
2023/08/13 06:49:29;;;;;;;2.40;2.20;;;22.90;99.90;;;;;;4948070;28;21095;-83
2023/08/13 06:51:55;;;;;;;3.23;2.10;;;22.90;99.90;;;;;;4946566;28;20957;-83
2023/08/13 06:54:22;;;;;;;2.10;1.83;;;22.90;99.90;;;;;;4945961;28;20824;-83
2023/08/13 06:56:49;;;;;;;2.17;1.97;;;22.90;99.90;;;;;;4950736;28;21249;-83
2023/08/13 06:59:16;;;;;;;3.20;2.07;;;22.90;99.90;;;;;;4949557;28;20555;-83
2023/08/13 07:01:43;;;;;;;2.63;1.80;;;22.90;99.90;;;;;;4947186;28;20949;-83
2023/08/13 07:04:11;;;;;;;1.93;1.50;;;22.90;99.90;;;;;;4948678;28;20456;-83
2023/08/13 07:06:38;;;;;;;3.00;1.67;;;22.90;99.90;;;;;;4952345;28;20460;-83
2023/08/13 07:09:06;;;;;;;2.70;1.70;;;22.90;99.90;;;;;;4941896;28;20468;-83
2023/08/13 07:11:36;;;;;;;2.13;1.33;;;22.90;99.90;;;;;;4948779;28;20470;-83
2023/08/13 07:14:03;;;;;;;2.50;1.77;;;22.90;99.90;;;;;;4945578;28;20766;-83
2023/08/13 07:16:31;;;;;;;2.13;1.80;;;22.90;99.90;;;;;;4943284;28;20484;-83
2023/08/13 07:18:58;;;;;;;1.60;1.40;;;22.90;99.90;;;;;;4950187;28;20468;-83
2023/08/13 07:21:27;;;;;;;1.70;1.60;;;22.90;99.90;;;;;;4953985;28;20932;-84
2023/08/13 07:23:54;;;;;;;2.03;1.83;;;22.90;99.90;;;;;;4969669;28;20492;-80
2023/08/13 07:26:20;;;;;;;2.23;1.73;;;22.90;99.90;;;;;;4965453;28;20457;-84
2023/08/13 07:28:47;;;;;;;5.10;1.60;;;22.90;99.90;;;;;;4970345;28;20472;-85
2023/08/13 07:31:14;;;;;;;1.50;1.40;;;22.90;99.90;;;;;;4964830;28;20518;-82
2023/08/13 07:33:41;;;;;;;3.77;1.60;;;22.90;99.90;;;;;;4969853;28;20856;-80
2023/08/13 07:36:07;;;;;;;2.80;1.77;;;22.90;99.90;;;;;;4962800;28;20535;-82
2023/08/13 07:38:35;;;;;;;2.23;1.60;;;22.90;99.90;;;;;;4966390;28;20464;-80
2023/08/13 07:41:03;;;;;;;5.03;2.30;;;22.90;99.90;;;;;;4975074;28;20445;-82
2023/08/13 07:43:30;;;;;;;3.10;1.67;;;22.90;99.90;;;;;;4971851;28;20460;-82
2023/08/13 07:45:57;;;;;;;2.67;2.30;;;22.90;99.90;;;;;;4966219;28;20595;-85
2023/08/13 07:48:24;;;;;;;2.27;2.07;;;22.90;99.90;;;;;;4974510;28;20464;-85
2023/08/13 07:50:55;;;;;;;3.97;1.63;;;22.90;99.90;;;;;;4969257;28;20484;-85
2023/08/13 07:53:22;;;;;;;4.00;1.97;;;22.90;99.90;;;;;;4975691;28;20736;-85
2023/08/13 07:55:50;;;;;;;2.33;1.63;;;22.90;99.90;;;;;;4970755;28;20466;-84
2023/08/13 07:58:17;;;;;;;2.13;1.43;;;22.90;99.90;;;;;;4975714;28;21367;-85
2023/08/13 08:00:44;;;;;;;3.83;1.87;;;22.90;99.90;;;;;;4970951;28;20849;-85
2023/08/13 08:03:11;;;;;;;5.30;2.13;;;22.90;99.90;;;;;;4971534;28;20469;-85
2023/08/13 08:05:38;;;;;;;3.77;1.67;;;23.00;99.90;;;;;;4969993;28;20462;-85
2023/08/13 08:08:05;;;;;;;2.63;2.37;;;22.90;99.90;;;;;;4974888;28;21062;-85
2023/08/13 08:10:31;;;;;;;2.67;2.43;;;22.90;99.90;;;;;;4973104;28;20465;-85
2023/08/13 08:12:59;;;;;;;6.60;2.80;;;22.90;99.90;;;;;;4970520;28;20483;-86
2023/08/13 08:15:26;;;;;;;6.10;2.50;;;22.90;99.90;;;;;;4967355;28;20472;-85
2023/08/13 08:17:53;;;;;;;7.67;2.60;;;22.90;99.90;;;;;;4972762;28;20471;-85
2023/08/13 08:20:20;;;;;;;4.70;2.23;;;22.90;99.90;;;;;;4970871;28;20468;-84
2023/08/13 08:22:47;;;;;;;5.80;2.87;;;22.90;99.90;;;;;;4970061;28;20465;-86
2023/08/13 08:25:14;;;;;;;4.83;1.90;;;22.90;99.90;;;;;;4969017;28;21032;-79
2023/08/13 08:27:41;;;;;;;11.70;2.50;;;22.90;99.90;;;;;;4968553;28;20464;-80
2023/08/13 08:30:10;;;;;;;5.30;2.10;;;22.80;99.90;;;;;;4963491;28;20467;-78
2023/08/13 08:32:37;;;;;;;5.67;2.43;;;22.80;99.90;;;;;;4964423;28;20463;-80
2023/08/13 08:35:05;;;;;;;2.93;1.93;;;22.80;99.90;;;;;;4973023;28;20818;-79
2023/08/13 08:37:33;;;;;;;21.53;10.63;;;22.80;99.90;;;;;;4968886;28;20460;-81
2023/08/13 08:40:02;;;;;;;15.00;7.20;;;22.80;99.90;;;;;;4970342;28;20458;-80
2023/08/13 08:42:30;;;;;;;5.77;3.57;;;22.80;99.90;;;;;;4969059;28;20484;-79
2023/08/13 08:45:02;;;;;;;10.63;4.17;;;22.80;99.90;;;;;;4963447;28;20857;-80
2023/08/13 08:47:32;;;;;;;7.27;3.43;;;22.80;99.90;;;;;;4963854;28;20457;-80
2023/08/13 08:50:04;;;;;;;7.73;4.17;;;22.80;99.90;;;;;;4976581;28;21136;-80
2023/08/13 08:52:33;;;;;;;6.93;3.70;;;22.80;99.90;;;;;;4973336;28;20583;-80
2023/08/13 08:55:01;;;;;;;4.83;2.90;;;22.80;99.90;;;;;;4967558;28;20888;-80
2023/08/13 08:57:29;;;;;;;9.60;2.90;;;22.80;99.90;;;;;;4967476;28;20456;-80
2023/08/13 08:59:55;;;;;;;8.60;2.77;;;22.80;99.90;;;;;;4963831;28;20464;-80
2023/08/13 09:02:22;;;;;;;5.20;2.57;;;22.80;99.90;;;;;;4967506;28;20461;-79
2023/08/13 09:04:51;;;;;;;9.20;2.27;;;22.80;99.90;;;;;;4964416;28;20463;-80
2023/08/13 09:07:17;;;;;;;6.80;2.40;;;22.80;99.90;;;;;;4961828;28;20563;-80
2023/08/13 09:09:49;;;;;;;6.60;2.50;;;22.80;99.90;;;;;;4966385;28;20480;-79
2023/08/13 09:12:16;;;;;;;5.23;1.93;;;22.80;99.90;;;;;;4968106;28;20465;-79
2023/08/13 09:14:43;;;;;;;6.97;1.97;;;22.80;99.90;;;;;;4965139;28;20484;-79
2023/08/13 09:17:13;;;;;;;7.17;3.07;;;22.80;99.90;;;;;;4963397;28;20461;-80
2023/08/13 09:19:39;;;;;;;4.57;2.20;;;22.80;99.90;;;;;;4969470;28;20468;-80
2023/08/13 09:22:09;;;;;;;3.70;1.60;;;22.80;99.90;;;;;;4960485;28;20456;-81
2023/08/13 09:24:38;;;;;;;7.70;2.40;;;22.80;99.90;;;;;;4966728;28;20586;-80
2023/08/13 09:27:07;;;;;;;5.47;2.23;;;22.70;99.90;;;;;;4970358;28;20461;-80
2023/08/13 09:29:34;;;;;;;4.23;2.10;;;22.80;99.90;;;;;;4966308;28;20475;-79
2023/08/13 09:32:03;;;;;;;3.73;1.80;;;22.70;99.90;;;;;;4962321;28;20564;-78
2023/08/13 09:34:34;;;;;;;7.40;2.03;;;22.70;99.90;;;;;;4964301;28;21007;-89
2023/08/13 09:37:01;;;;;;;5.20;2.30;;;22.70;99.90;;;;;;4957684;28;20452;-89
2023/08/13 09:39:31;;;;;;;4.97;1.77;;;22.70;99.90;;;;;;4962846;28;20457;-90
2023/08/13 09:42:00;;;;;;;5.00;1.87;;;22.70;99.90;;;;;;4962809;28;21092;-81
2023/08/13 09:44:29;;;;;;;7.47;2.10;;;22.70;99.90;;;;;;4952036;28;20472;-83
2023/08/13 09:47:00;;;;;;;4.60;2.47;;;22.70;99.90;;;;;;4943757;28;20937;-82
2023/08/13 09:49:30;;;;;;;2.83;2.00;;;22.70;99.90;;;;;;4952827;28;20575;-82
2023/08/13 09:52:00;;;;;;;5.40;2.53;;;22.80;99.90;;;;;;4955117;28;20952;-82
2023/08/13 09:54:37;;;;;;;4.23;2.20;;;22.80;99.90;;;;;;4956750;28;20495;-82
2023/08/13 09:57:06;;;;;;;4.70;2.07;;;22.80;99.90;;;;;;4949709;28;20472;-83
2023/08/13 09:59:36;;;;;;;9.60;1.70;;;22.80;99.90;;;;;;4954892;28;20457;-81
2023/08/13 10:02:06;;;;;;;4.67;2.00;;;22.80;99.90;;;;;;4951276;28;20977;-82
2023/08/13 10:04:34;;;;;;;4.97;2.30;;;22.80;99.90;;;;;;4953942;28;20508;-84
2023/08/13 10:07:03;;;;;;;4.80;1.77;;;22.90;99.90;;;;;;4958572;28;20846;-86
2023/08/13 10:09:31;;;;;;;3.33;1.70;;;22.90;99.90;;;;;;4953851;28;20464;-88
2023/08/13 10:11:59;;;;;;;7.80;2.00;;;22.90;99.90;;;;;;4959563;28;20934;-87
2023/08/13 10:14:26;;;;;;;4.60;2.33;;;22.90;99.90;;;;;;4952507;28;20493;-86
2023/08/13 10:16:53;;;;;;;4.73;2.13;;;23.00;99.90;;;;;;4948127;28;20687;-86
2023/08/13 10:19:28;;;;;;;2.30;1.60;;;23.00;99.90;;;;;;4948259;28;20544;-86
2023/08/13 10:21:56;;;;;;;2.90;1.80;;;23.10;99.90;;;;;;4950974;28;20475;-83
2023/08/13 10:24:23;;;;;;;4.60;1.70;;;23.10;99.90;;;;;;4961636;28;21017;-82
2023/08/13 10:26:53;;;;;;;4.73;1.40;;;23.10;99.90;;;;;;4954519;28;20837;-82
2023/08/13 10:29:20;;;;;;;6.47;1.80;;;23.10;99.90;;;;;;4955685;28;20459;-81
2023/08/13 10:31:54;;;;;;;2.23;2.03;;;23.10;99.90;;;;;;4952240;28;20479;-81
2023/08/13 10:34:39;;;;;;;7.40;2.03;;;23.20;99.90;;;;;;4959076;28;20500;-82
2023/08/13 10:37:14;;;;;;;3.90;1.90;;;23.20;99.90;;;;;;4954664;28;20461;-82
2023/08/13 10:39:41;;;;;;;6.23;2.37;;;23.20;99.90;;;;;;4957112;28;20551;-83
2023/08/13 10:42:41;;;;;;;2.53;1.53;;;23.20;99.90;;;;;;4961164;28;20912;-83
2023/08/13 10:45:11;;;;;;;5.13;2.10;;;23.30;99.90;;;;;;4951906;28;20469;-86
2023/08/13 10:47:45;;;;;;;2.60;1.97;;;23.30;99.90;;;;;;4956157;28;21102;-85
2023/08/13 10:50:21;;;;;;;5.70;1.90;;;23.30;99.90;;;;;;4958403;28;20482;-85
2023/08/13 10:52:48;;;;;;;4.80;2.10;;;23.30;99.90;;;;;;4940967;28;20805;-86
2023/08/13 10:55:23;;;;;;;2.50;1.50;;;23.40;99.90;;;;;;4954257;28;20887;-84
2023/08/13 10:57:51;;;;;;;2.63;1.80;;;23.40;99.90;;;;;;4956275;28;20845;-84
2023/08/13 11:00:22;;;;;;;3.10;2.00;;;23.40;99.90;;;;;;4948788;28;20886;-83
2023/08/13 11:02:52;;;;;;;2.63;1.70;;;23.40;99.90;;;;;;4951319;28;20476;-83
2023/08/13 11:05:19;;;;;;;3.63;1.73;;;23.50;99.90;;;;;;4952561;28;20496;-85
2023/08/13 11:07:47;;;;;;;2.83;1.70;;;23.50;99.90;;;;;;4954235;28;20466;-84
2023/08/13 11:10:18;;;;;;;4.50;1.50;;;23.50;99.90;;;;;;4954344;28;20524;-84
2023/08/13 11:12:46;;;;;;;2.90;1.47;;;23.50;99.90;;;;;;4960551;28;20580;-84
2023/08/13 11:15:13;;;;;;;5.13;2.30;;;23.50;99.90;;;;;;4966035;28;20498;-83
2023/08/13 11:17:46;;;;;;;6.20;2.70;;;23.60;99.90;;;;;;4965004;28;20464;-84
2023/08/13 11:20:14;;;;;;;2.40;1.37;;;23.60;99.90;;;;;;4971758;28;20462;-83
2023/08/13 11:22:41;;;;;;;3.47;1.80;;;23.60;99.90;;;;;;4964450;28;20473;-83
2023/08/13 11:25:10;;;;;;;1.60;1.50;;;23.60;99.90;;;;;;4966602;28;20462;-86
2023/08/13 11:27:37;;;;;;;4.00;1.90;;;23.70;99.90;;;;;;4971775;28;20502;-84
2023/08/13 11:30:05;;;;;;;3.90;2.17;;;23.70;99.90;;;;;;4971520;28;20464;-86
2023/08/13 11:32:31;;;;;;;1.97;1.37;;;23.70;99.90;;;;;;4973779;28;20459;-83
2023/08/13 11:35:00;;;;;;;6.50;2.13;;;23.70;99.90;;;;;;4967748;28;21072;-82
2023/08/13 11:37:27;;;;;;;1.93;1.50;;;23.70;99.90;;;;;;4969931;28;20522;-83
2023/08/13 11:39:54;;;;;;;3.43;2.03;;;23.80;99.90;;;;;;4964984;28;20467;-83
2023/08/13 11:42:20;;;;;;;1.87;1.43;;;23.80;99.90;;;;;;4958138;28;20475;-81
2023/08/13 11:44:50;;;;;;;2.80;1.40;;;23.80;99.90;;;;;;4963087;28;20467;-84
2023/08/13 11:47:25;;;;;;;2.80;1.93;;;23.80;99.90;;;;;;4972726;28;20958;-85
2023/08/13 11:49:54;;;;;;;3.63;1.60;;;23.80;99.90;;;;;;4967294;28;20920;-83
2023/08/13 11:52:23;;;;;;;2.40;1.30;;;23.80;99.90;;;;;;4965516;28;20474;-82
2023/08/13 11:54:51;;;;;;;4.33;1.70;;;23.90;99.90;;;;;;4953362;28;21911;-82
2023/08/13 11:57:18;;;;;;;2.00;1.50;;;23.90;99.90;;;;;;4964310;28;20565;-81
2023/08/13 11:59:48;;;;;;;2.07;1.40;;;23.90;99.90;;;;;;4951933;28;20999;-84
2023/08/13 12:02:15;;;;;;;3.23;1.93;;;23.90;99.90;;;;;;4953373;28;20463;-81
2023/08/13 12:04:46;;;;;;;3.40;1.63;;;23.90;99.90;;;;;;4950714;28;20563;-82
2023/08/13 12:07:13;;;;;;;3.77;2.40;;;23.90;99.90;;;;;;4966631;28;20561;-84
2023/08/13 12:09:41;;;;;;;1.60;1.50;;;24.00;99.90;;;;;;4955899;28;20460;-83
2023/08/13 12:12:08;;;;;;;3.80;1.90;;;24.00;99.90;;;;;;4956112;28;20471;-84
2023/08/13 12:14:43;;;;;;;3.40;1.90;;;24.00;99.90;;;;;;4953861;28;20480;-84
2023/08/13 12:17:09;;;;;;;4.27;1.87;;;24.00;99.90;;;;;;4953002;28;20522;-84
2023/08/13 12:19:36;;;;;;;2.67;1.90;;;24.00;99.90;;;;;;4953151;28;20475;-83
2023/08/13 12:22:03;;;;;;;2.03;1.83;;;24.00;99.90;;;;;;4953871;28;21079;-84
2023/08/13 12:24:30;;;;;;;3.20;1.30;;;24.00;99.90;;;;;;4958718;28;20841;-84
2023/08/13 12:26:58;;;;;;;2.37;1.20;;;24.00;99.90;;;;;;4951151;28;20463;-85
2023/08/13 12:29:25;;;;;;;2.80;1.90;;;24.00;99.90;;;;;;4956738;28;21018;-84
2023/08/13 12:31:52;;;;;;;3.17;1.93;;;24.00;99.90;;;;;;4946807;28;21059;-84
2023/08/13 12:34:18;;;;;;;2.63;1.90;;;24.00;99.90;;;;;;4950308;28;20480;-86
2023/08/13 12:36:45;;;;;;;4.50;1.80;;;24.00;99.90;;;;;;4969400;28;20471;-86
2023/08/13 12:39:12;;;;;;;3.53;2.50;;;24.10;99.90;;;;;;4964535;28;20567;-87
2023/08/13 12:41:39;;;;;;;4.70;2.00;;;24.10;99.90;;;;;;4955514;28;20485;-85
2023/08/13 12:44:07;;;;;;;3.87;1.90;;;24.10;99.90;;;;;;4954464;28;20465;-83
2023/08/13 12:46:34;;;;;;;2.20;1.60;;;24.10;99.90;;;;;;4953998;28;20523;-85
2023/08/13 12:49:01;;;;;;;2.70;1.77;;;24.10;99.90;;;;;;4953078;28;20512;-85